Terminal Aerodrome Forecast
Issued by NWS

Home | Current Version | Previous Version | Text Only | Print | Product List | Glossary Off
Versions: 1 2 3 4 5 6 7 8 9 10 11 12 13 14 15 16 17 18 19 20

000
FTUS43 KBIS 261100
TAFJMS
TAF
KJMS 261120Z 2612/2712 30012G17KT P6SM FEW120
     FM262200 31008KT P6SM SCT120
     FM270600 16007KT P6SM SCT080 SCT150=

USA.gov is the U.S. government's official web portal to all federal, state and local government web resources and services.